sensor_id;sensor_type;location;lat;lon;timestamp;P1;durP1;ratioP1;P2;durP2;ratioP2
14874;SDS011;7529;48.170;17.138;2022-12-29T00:00:49;183.05;;;174.15;;
14874;SDS011;7529;48.170;17.138;2022-12-29T00:05:01;142.43;;;135.18;;
14874;SDS011;7529;48.170;17.138;2022-12-29T00:09:12;129.07;;;122.55;;
14874;SDS011;7529;48.170;17.138;2022-12-29T00:13:26;110.72;;;104.97;;
14874;SDS011;7529;48.170;17.138;2022-12-29T00:17:56;108.18;;;102.10;;
14874;SDS011;7529;48.170;17.138;2022-12-29T00:22:09;128.55;;;122.03;;
14874;SDS011;7529;48.170;17.138;2022-12-29T00:26:40;109.03;;;103.32;;
14874;SDS011;7529;48.170;17.138;2022-12-29T00:31:11;73.50;;;69.50;;
14874;SDS011;7529;48.170;17.138;2022-12-29T00:35:51;94.05;;;89.20;;
14874;SDS011;7529;48.170;17.138;2022-12-29T00:40:07;99.55;;;94.20;;
14874;SDS011;7529;48.170;17.138;2022-12-29T00:44:37;106.35;;;100.88;;
14874;SDS011;7529;48.170;17.138;2022-12-29T00:48:48;98.03;;;92.85;;
14874;SDS011;7529;48.170;17.138;2022-12-29T00:53:18;99.10;;;93.97;;
14874;SDS011;7529;48.170;17.138;2022-12-29T00:57:29;100.38;;;95.07;;
14874;SDS011;7529;48.170;17.138;2022-12-29T01:01:41;106.30;;;101.05;;
14874;SDS011;7529;48.170;17.138;2022-12-29T01:05:52;102.85;;;97.65;;
14874;SDS011;7529;48.170;17.138;2022-12-29T01:10:04;120.82;;;114.45;;
14874;SDS011;7529;48.170;17.138;2022-12-29T01:14:21;129.48;;;123.13;;
14874;SDS011;7529;48.170;17.138;2022-12-29T01:18:33;145.20;;;137.77;;
14874;SDS011;7529;48.170;17.138;2022-12-29T01:22:44;150.55;;;142.90;;
14874;SDS011;7529;48.170;17.138;2022-12-29T01:26:56;135.07;;;128.05;;
14874;SDS011;7529;48.170;17.138;2022-12-29T01:31:10;163.70;;;155.48;;
14874;SDS011;7529;48.170;17.138;2022-12-29T01:35:24;181.23;;;172.30;;
14874;SDS011;7529;48.170;17.138;2022-12-29T01:39:36;151.73;;;143.85;;
14874;SDS011;7529;48.170;17.138;2022-12-29T01:43:48;175.07;;;166.32;;
14874;SDS011;7529;48.170;17.138;2022-12-29T01:48:04;139.32;;;132.30;;
14874;SDS011;7529;48.170;17.138;2022-12-29T01:52:20;215.60;;;204.90;;
14874;SDS011;7529;48.170;17.138;2022-12-29T01:56:33;155.73;;;147.52;;
14874;SDS011;7529;48.170;17.138;2022-12-29T02:00:45;171.60;;;162.35;;
14874;SDS011;7529;48.170;17.138;2022-12-29T02:04:58;188.95;;;178.82;;
14874;SDS011;7529;48.170;17.138;2022-12-29T02:09:15;215.30;;;204.15;;
14874;SDS011;7529;48.170;17.138;2022-12-29T02:13:26;215.23;;;204.02;;
14874;SDS011;7529;48.170;17.138;2022-12-29T02:31:58;246.50;;;233.80;;
14874;SDS011;7529;48.170;17.138;2022-12-29T02:35:54;256.58;;;243.60;;
14874;SDS011;7529;48.170;17.138;2022-12-29T02:40:35;249.02;;;236.57;;
14874;SDS011;7529;48.170;17.138;2022-12-29T02:49:20;189.82;;;180.05;;
14874;SDS011;7529;48.170;17.138;2022-12-29T02:53:44;160.57;;;152.18;;
14874;SDS011;7529;48.170;17.138;2022-12-29T02:58:18;125.13;;;118.60;;
14874;SDS011;7529;48.170;17.138;2022-12-29T03:02:46;161.07;;;152.82;;
14874;SDS011;7529;48.170;17.138;2022-12-29T03:07:23;125.13;;;118.40;;
14874;SDS011;7529;48.170;17.138;2022-12-29T03:17:17;105.75;;;100.25;;
14874;SDS011;7529;48.170;17.138;2022-12-29T03:21:44;117.18;;;110.93;;
14874;SDS011;7529;48.170;17.138;2022-12-29T03:26:25;123.47;;;117.35;;
14874;SDS011;7529;48.170;17.138;2022-12-29T03:30:36;134.98;;;128.57;;
14874;SDS011;7529;48.170;17.138;2022-12-29T03:34:51;126.80;;;120.35;;
14874;SDS011;7529;48.170;17.138;2022-12-29T03:39:10;124.60;;;118.40;;
14874;SDS011;7529;48.170;17.138;2022-12-29T03:43:22;116.18;;;110.22;;
14874;SDS011;7529;48.170;17.138;2022-12-29T03:47:34;92.43;;;87.47;;
14874;SDS011;7529;48.170;17.138;2022-12-29T03:51:46;79.88;;;75.43;;
14874;SDS011;7529;48.170;17.138;2022-12-29T03:55:57;80.57;;;75.82;;
14874;SDS011;7529;48.170;17.138;2022-12-29T04:00:09;93.35;;;88.15;;
14874;SDS011;7529;48.170;17.138;2022-12-29T04:04:29;92.18;;;87.45;;
14874;SDS011;7529;48.170;17.138;2022-12-29T04:08:40;99.50;;;94.50;;
14874;SDS011;7529;48.170;17.138;2022-12-29T04:12:51;88.10;;;83.53;;
14874;SDS011;7529;48.170;17.138;2022-12-29T04:17:03;79.93;;;75.72;;
14874;SDS011;7529;48.170;17.138;2022-12-29T04:21:15;100.38;;;95.28;;
14874;SDS011;7529;48.170;17.138;2022-12-29T04:25:27;99.78;;;94.50;;
14874;SDS011;7529;48.170;17.138;2022-12-29T04:29:39;114.88;;;109.10;;
14874;SDS011;7529;48.170;17.138;2022-12-29T04:34:13;95.45;;;90.63;;
14874;SDS011;7529;48.170;17.138;2022-12-29T04:38:25;114.60;;;108.93;;
14874;SDS011;7529;48.170;17.138;2022-12-29T04:42:38;128.98;;;121.88;;
14874;SDS011;7529;48.170;17.138;2022-12-29T04:46:51;117.55;;;111.47;;
14874;SDS011;7529;48.170;17.138;2022-12-29T04:51:18;101.10;;;96.15;;
14874;SDS011;7529;48.170;17.138;2022-12-29T04:55:30;116.70;;;110.88;;
14874;SDS011;7529;48.170;17.138;2022-12-29T04:59:41;120.20;;;114.07;;
14874;SDS011;7529;48.170;17.138;2022-12-29T05:03:53;113.32;;;107.82;;
14874;SDS011;7529;48.170;17.138;2022-12-29T05:08:04;127.38;;;120.82;;
14874;SDS011;7529;48.170;17.138;2022-12-29T05:12:15;128.90;;;122.35;;
14874;SDS011;7529;48.170;17.138;2022-12-29T05:16:37;109.70;;;104.22;;
14874;SDS011;7529;48.170;17.138;2022-12-29T05:20:48;112.47;;;106.88;;
14874;SDS011;7529;48.170;17.138;2022-12-29T05:25:01;130.10;;;123.40;;
14874;SDS011;7529;48.170;17.138;2022-12-29T05:29:14;127.35;;;121.10;;
14874;SDS011;7529;48.170;17.138;2022-12-29T05:33:26;132.90;;;126.32;;
14874;SDS011;7529;48.170;17.138;2022-12-29T05:37:37;134.98;;;128.07;;
14874;SDS011;7529;48.170;17.138;2022-12-29T05:41:48;122.07;;;116.00;;
14874;SDS011;7529;48.170;17.138;2022-12-29T05:46:00;127.50;;;120.70;;
14874;SDS011;7529;48.170;17.138;2022-12-29T05:50:55;134.05;;;127.40;;
14874;SDS011;7529;48.170;17.138;2022-12-29T05:55:16;127.50;;;121.07;;
14874;SDS011;7529;48.170;17.138;2022-12-29T05:59:30;119.22;;;113.32;;
14874;SDS011;7529;48.170;17.138;2022-12-29T06:03:41;106.30;;;100.53;;
14874;SDS011;7529;48.170;17.138;2022-12-29T06:07:53;127.82;;;121.35;;
14874;SDS011;7529;48.170;17.138;2022-12-29T06:12:04;126.20;;;119.57;;
14874;SDS011;7529;48.170;17.138;2022-12-29T06:16:17;129.93;;;123.57;;
14874;SDS011;7529;48.170;17.138;2022-12-29T06:20:30;130.80;;;124.22;;
14874;SDS011;7529;48.170;17.138;2022-12-29T06:24:41;122.85;;;116.97;;
14874;SDS011;7529;48.170;17.138;2022-12-29T06:28:52;130.35;;;123.90;;
14874;SDS011;7529;48.170;17.138;2022-12-29T06:33:04;123.47;;;117.03;;
14874;SDS011;7529;48.170;17.138;2022-12-29T06:37:15;116.68;;;110.75;;
14874;SDS011;7529;48.170;17.138;2022-12-29T06:41:27;135.73;;;129.18;;
14874;SDS011;7529;48.170;17.138;2022-12-29T06:46:00;125.50;;;119.30;;
14874;SDS011;7529;48.170;17.138;2022-12-29T06:50:12;123.68;;;117.50;;
14874;SDS011;7529;48.170;17.138;2022-12-29T06:54:23;123.20;;;117.05;;
14874;SDS011;7529;48.170;17.138;2022-12-29T06:58:34;116.35;;;110.00;;
14874;SDS011;7529;48.170;17.138;2022-12-29T07:02:46;120.82;;;114.75;;
14874;SDS011;7529;48.170;17.138;2022-12-29T07:06:57;122.82;;;117.03;;
14874;SDS011;7529;48.170;17.138;2022-12-29T07:11:08;105.82;;;100.85;;
14874;SDS011;7529;48.170;17.138;2022-12-29T07:15:19;118.13;;;112.38;;
14874;SDS011;7529;48.170;17.138;2022-12-29T07:19:31;110.15;;;104.22;;
14874;SDS011;7529;48.170;17.138;2022-12-29T07:23:43;119.20;;;113.05;;
14874;SDS011;7529;48.170;17.138;2022-12-29T07:27:54;114.70;;;109.03;;
14874;SDS011;7529;48.170;17.138;2022-12-29T07:32:05;103.20;;;97.82;;
14874;SDS011;7529;48.170;17.138;2022-12-29T07:36:17;101.72;;;96.68;;
14874;SDS011;7529;48.170;17.138;2022-12-29T07:40:28;108.55;;;102.75;;
14874;SDS011;7529;48.170;17.138;2022-12-29T07:44:40;82.28;;;77.65;;
14874;SDS011;7529;48.170;17.138;2022-12-29T07:49:02;77.28;;;73.35;;
14874;SDS011;7529;48.170;17.138;2022-12-29T07:53:14;56.85;;;53.58;;
14874;SDS011;7529;48.170;17.138;2022-12-29T07:57:25;70.30;;;65.60;;
14874;SDS011;7529;48.170;17.138;2022-12-29T08:01:36;82.47;;;78.38;;
14874;SDS011;7529;48.170;17.138;2022-12-29T08:05:48;41.28;;;38.50;;
14874;SDS011;7529;48.170;17.138;2022-12-29T08:10:00;38.45;;;35.67;;
14874;SDS011;7529;48.170;17.138;2022-12-29T08:14:11;34.17;;;31.77;;
14874;SDS011;7529;48.170;17.138;2022-12-29T08:18:23;26.90;;;24.80;;
14874;SDS011;7529;48.170;17.138;2022-12-29T08:22:35;25.08;;;23.30;;
14874;SDS011;7529;48.170;17.138;2022-12-29T08:26:46;23.80;;;21.83;;
14874;SDS011;7529;48.170;17.138;2022-12-29T08:30:58;15.20;;;13.63;;
14874;SDS011;7529;48.170;17.138;2022-12-29T08:35:11;20.30;;;18.63;;
14874;SDS011;7529;48.170;17.138;2022-12-29T08:39:23;17.98;;;16.60;;
14874;SDS011;7529;48.170;17.138;2022-12-29T08:43:35;14.35;;;13.45;;
14874;SDS011;7529;48.170;17.138;2022-12-29T08:47:46;14.77;;;13.68;;
14874;SDS011;7529;48.170;17.138;2022-12-29T08:51:59;15.30;;;13.90;;
14874;SDS011;7529;48.170;17.138;2022-12-29T08:56:10;15.25;;;13.85;;
14874;SDS011;7529;48.170;17.138;2022-12-29T09:00:30;17.70;;;13.23;;
14874;SDS011;7529;48.170;17.138;2022-12-29T09:04:42;13.80;;;12.93;;
14874;SDS011;7529;48.170;17.138;2022-12-29T09:08:53;14.98;;;13.98;;
14874;SDS011;7529;48.170;17.138;2022-12-29T09:13:05;15.70;;;14.35;;
14874;SDS011;7529;48.170;17.138;2022-12-29T09:17:17;14.63;;;13.32;;
14874;SDS011;7529;48.170;17.138;2022-12-29T09:21:47;13.68;;;12.80;;
14874;SDS011;7529;48.170;17.138;2022-12-29T09:25:59;16.85;;;15.45;;
14874;SDS011;7529;48.170;17.138;2022-12-29T09:30:12;16.13;;;14.43;;
14874;SDS011;7529;48.170;17.138;2022-12-29T09:34:25;15.52;;;14.43;;
14874;SDS011;7529;48.170;17.138;2022-12-29T09:38:36;15.65;;;14.65;;
14874;SDS011;7529;48.170;17.138;2022-12-29T09:42:55;15.98;;;14.75;;
14874;SDS011;7529;48.170;17.138;2022-12-29T09:47:17;15.18;;;14.07;;
14874;SDS011;7529;48.170;17.138;2022-12-29T09:51:31;13.38;;;12.38;;
14874;SDS011;7529;48.170;17.138;2022-12-29T09:55:47;14.13;;;13.23;;
14874;SDS011;7529;48.170;17.138;2022-12-29T10:00:03;14.57;;;13.55;;
14874;SDS011;7529;48.170;17.138;2022-12-29T10:24:30;16.90;;;15.25;;
14874;SDS011;7529;48.170;17.138;2022-12-29T10:28:58;27.75;;;15.05;;
14874;SDS011;7529;48.170;17.138;2022-12-29T10:33:20;16.60;;;15.30;;
14874;SDS011;7529;48.170;17.138;2022-12-29T10:37:52;18.77;;;15.80;;
14874;SDS011;7529;48.170;17.138;2022-12-29T10:42:20;16.73;;;15.57;;
14874;SDS011;7529;48.170;17.138;2022-12-29T10:46:55;16.95;;;15.63;;
14874;SDS011;7529;48.170;17.138;2022-12-29T10:51:11;13.52;;;12.73;;
14874;SDS011;7529;48.170;17.138;2022-12-29T10:55:49;17.08;;;15.73;;
14874;SDS011;7529;48.170;17.138;2022-12-29T11:00:08;18.02;;;16.77;;
14874;SDS011;7529;48.170;17.138;2022-12-29T11:04:28;16.48;;;15.38;;
14874;SDS011;7529;48.170;17.138;2022-12-29T11:09:01;16.60;;;15.55;;
14874;SDS011;7529;48.170;17.138;2022-12-29T11:13:33;16.33;;;14.82;;
14874;SDS011;7529;48.170;17.138;2022-12-29T11:17:57;17.35;;;15.95;;
14874;SDS011;7529;48.170;17.138;2022-12-29T11:22:13;16.20;;;15.00;;
14874;SDS011;7529;48.170;17.138;2022-12-29T11:26:37;17.20;;;15.70;;
14874;SDS011;7529;48.170;17.138;2022-12-29T11:30:51;18.15;;;16.42;;
14874;SDS011;7529;48.170;17.138;2022-12-29T11:35:18;15.73;;;14.63;;
14874;SDS011;7529;48.170;17.138;2022-12-29T11:39:57;18.27;;;16.65;;
14874;SDS011;7529;48.170;17.138;2022-12-29T11:44:15;16.48;;;15.38;;
14874;SDS011;7529;48.170;17.138;2022-12-29T11:48:28;16.00;;;14.90;;
14874;SDS011;7529;48.170;17.138;2022-12-29T11:52:44;17.27;;;15.93;;
14874;SDS011;7529;48.170;17.138;2022-12-29T11:56:56;16.52;;;15.30;;
14874;SDS011;7529;48.170;17.138;2022-12-29T12:10:16;14.90;;;13.90;;
14874;SDS011;7529;48.170;17.138;2022-12-29T12:14:41;16.48;;;15.02;;
14874;SDS011;7529;48.170;17.138;2022-12-29T12:33:28;14.88;;;13.85;;
14874;SDS011;7529;48.170;17.138;2022-12-29T12:37:49;14.77;;;13.88;;
14874;SDS011;7529;48.170;17.138;2022-12-29T12:56:23;17.05;;;15.85;;
14874;SDS011;7529;48.170;17.138;2022-12-29T13:43:34;17.45;;;16.27;;
14874;SDS011;7529;48.170;17.138;2022-12-29T13:47:55;15.98;;;14.68;;
14874;SDS011;7529;48.170;17.138;2022-12-29T13:57:07;18.45;;;16.95;;
14874;SDS011;7529;48.170;17.138;2022-12-29T14:01:58;16.33;;;15.20;;
14874;SDS011;7529;48.170;17.138;2022-12-29T14:06:24;17.95;;;16.50;;
14874;SDS011;7529;48.170;17.138;2022-12-29T14:10:47;17.08;;;15.75;;
14874;SDS011;7529;48.170;17.138;2022-12-29T14:19:30;19.05;;;17.50;;
14874;SDS011;7529;48.170;17.138;2022-12-29T14:23:51;19.38;;;17.88;;
14874;SDS011;7529;48.170;17.138;2022-12-29T14:28:14;20.13;;;18.45;;
14874;SDS011;7529;48.170;17.138;2022-12-29T14:36:40;21.15;;;19.35;;
14874;SDS011;7529;48.170;17.138;2022-12-29T14:45:53;36.47;;;33.17;;
14874;SDS011;7529;48.170;17.138;2022-12-29T14:58:57;84.43;;;78.13;;
14874;SDS011;7529;48.170;17.138;2022-12-29T15:07:36;154.73;;;144.13;;
14874;SDS011;7529;48.170;17.138;2022-12-29T15:11:48;161.38;;;151.00;;
14874;SDS011;7529;48.170;17.138;2022-12-29T15:16:20;212.75;;;199.82;;
14874;SDS011;7529;48.170;17.138;2022-12-29T15:20:46;239.23;;;225.52;;
14874;SDS011;7529;48.170;17.138;2022-12-29T15:25:16;232.25;;;218.75;;
14874;SDS011;7529;48.170;17.138;2022-12-29T15:29:42;222.15;;;209.65;;
14874;SDS011;7529;48.170;17.138;2022-12-29T15:34:01;220.18;;;207.73;;
14874;SDS011;7529;48.170;17.138;2022-12-29T15:38:25;236.00;;;222.73;;
14874;SDS011;7529;48.170;17.138;2022-12-29T15:47:45;237.50;;;223.70;;
14874;SDS011;7529;48.170;17.138;2022-12-29T15:52:07;195.88;;;183.88;;
14874;SDS011;7529;48.170;17.138;2022-12-29T15:56:19;212.35;;;199.73;;
14874;SDS011;7529;48.170;17.138;2022-12-29T16:00:33;221.45;;;208.07;;
14874;SDS011;7529;48.170;17.138;2022-12-29T16:04:48;230.95;;;217.10;;
14874;SDS011;7529;48.170;17.138;2022-12-29T16:09:04;227.30;;;213.38;;
14874;SDS011;7529;48.170;17.138;2022-12-29T16:13:40;231.65;;;217.65;;
14874;SDS011;7529;48.170;17.138;2022-12-29T16:17:51;257.70;;;242.48;;
14874;SDS011;7529;48.170;17.138;2022-12-29T16:22:10;219.70;;;206.27;;
14874;SDS011;7529;48.170;17.138;2022-12-29T16:26:31;353.30;;;329.15;;
14874;SDS011;7529;48.170;17.138;2022-12-29T16:30:43;281.45;;;264.83;;
14874;SDS011;7529;48.170;17.138;2022-12-29T16:35:11;144.00;;;134.73;;
14874;SDS011;7529;48.170;17.138;2022-12-29T16:39:35;180.43;;;169.15;;
14874;SDS011;7529;48.170;17.138;2022-12-29T16:43:51;206.23;;;194.40;;
14874;SDS011;7529;48.170;17.138;2022-12-29T16:48:36;187.13;;;175.85;;
14874;SDS011;7529;48.170;17.138;2022-12-29T16:53:00;192.00;;;180.20;;
14874;SDS011;7529;48.170;17.138;2022-12-29T16:57:13;191.75;;;180.05;;
14874;SDS011;7529;48.170;17.138;2022-12-29T17:01:25;195.95;;;183.32;;
14874;SDS011;7529;48.170;17.138;2022-12-29T17:05:39;195.63;;;183.77;;
14874;SDS011;7529;48.170;17.138;2022-12-29T17:09:50;196.25;;;184.98;;
14874;SDS011;7529;48.170;17.138;2022-12-29T17:14:03;187.88;;;177.35;;
14874;SDS011;7529;48.170;17.138;2022-12-29T17:18:14;137.95;;;129.18;;
14874;SDS011;7529;48.170;17.138;2022-12-29T17:22:27;146.63;;;138.02;;
14874;SDS011;7529;48.170;17.138;2022-12-29T17:26:39;151.50;;;142.32;;
14874;SDS011;7529;48.170;17.138;2022-12-29T17:30:51;157.77;;;148.60;;
14874;SDS011;7529;48.170;17.138;2022-12-29T17:35:15;152.52;;;143.15;;
14874;SDS011;7529;48.170;17.138;2022-12-29T17:39:28;163.45;;;153.82;;
14874;SDS011;7529;48.170;17.138;2022-12-29T17:43:40;130.13;;;122.07;;
14874;SDS011;7529;48.170;17.138;2022-12-29T17:47:52;131.73;;;123.28;;
14874;SDS011;7529;48.170;17.138;2022-12-29T17:52:05;134.60;;;126.57;;
14874;SDS011;7529;48.170;17.138;2022-12-29T17:56:16;128.50;;;120.50;;
14874;SDS011;7529;48.170;17.138;2022-12-29T18:00:28;137.55;;;129.40;;
14874;SDS011;7529;48.170;17.138;2022-12-29T18:04:40;121.32;;;113.50;;
14874;SDS011;7529;48.170;17.138;2022-12-29T18:08:51;139.95;;;131.48;;
14874;SDS011;7529;48.170;17.138;2022-12-29T18:13:04;149.82;;;141.35;;
14874;SDS011;7529;48.170;17.138;2022-12-29T18:17:15;165.52;;;155.60;;
14874;SDS011;7529;48.170;17.138;2022-12-29T18:21:26;156.32;;;146.55;;
14874;SDS011;7529;48.170;17.138;2022-12-29T18:30:12;156.20;;;147.18;;
14874;SDS011;7529;48.170;17.138;2022-12-29T18:34:24;108.20;;;101.05;;
14874;SDS011;7529;48.170;17.138;2022-12-29T18:38:35;110.18;;;103.20;;
14874;SDS011;7529;48.170;17.138;2022-12-29T18:42:47;139.43;;;130.88;;
14874;SDS011;7529;48.170;17.138;2022-12-29T18:46:58;140.18;;;131.90;;
14874;SDS011;7529;48.170;17.138;2022-12-29T18:51:17;114.57;;;107.18;;
14874;SDS011;7529;48.170;17.138;2022-12-29T18:55:31;142.02;;;134.05;;
14874;SDS011;7529;48.170;17.138;2022-12-29T18:59:42;133.63;;;125.47;;
14874;SDS011;7529;48.170;17.138;2022-12-29T19:03:53;154.80;;;145.30;;
14874;SDS011;7529;48.170;17.138;2022-12-29T19:08:05;102.05;;;95.43;;
14874;SDS011;7529;48.170;17.138;2022-12-29T19:12:18;127.60;;;119.82;;
14874;SDS011;7529;48.170;17.138;2022-12-29T19:16:29;107.90;;;101.28;;
14874;SDS011;7529;48.170;17.138;2022-12-29T19:20:41;158.75;;;149.82;;
14874;SDS011;7529;48.170;17.138;2022-12-29T19:24:53;143.00;;;134.15;;
14874;SDS011;7529;48.170;17.138;2022-12-29T19:29:11;160.10;;;150.75;;
14874;SDS011;7529;48.170;17.138;2022-12-29T19:33:27;153.80;;;144.38;;
14874;SDS011;7529;48.170;17.138;2022-12-29T19:37:39;125.22;;;117.22;;
14874;SDS011;7529;48.170;17.138;2022-12-29T19:41:50;131.82;;;123.47;;
14874;SDS011;7529;48.170;17.138;2022-12-29T19:46:05;124.20;;;116.28;;
14874;SDS011;7529;48.170;17.138;2022-12-29T19:50:19;107.80;;;100.95;;
14874;SDS011;7529;48.170;17.138;2022-12-29T19:54:36;132.40;;;124.30;;
14874;SDS011;7529;48.170;17.138;2022-12-29T19:58:58;153.95;;;144.50;;
14874;SDS011;7529;48.170;17.138;2022-12-29T20:03:13;104.78;;;97.10;;
14874;SDS011;7529;48.170;17.138;2022-12-29T20:07:29;107.68;;;100.22;;
14874;SDS011;7529;48.170;17.138;2022-12-29T20:11:49;117.55;;;110.40;;
14874;SDS011;7529;48.170;17.138;2022-12-29T20:16:15;100.85;;;94.32;;
14874;SDS011;7529;48.170;17.138;2022-12-29T20:20:33;124.28;;;116.72;;
14874;SDS011;7529;48.170;17.138;2022-12-29T20:24:53;154.50;;;145.80;;
14874;SDS011;7529;48.170;17.138;2022-12-29T20:29:06;144.60;;;135.10;;
14874;SDS011;7529;48.170;17.138;2022-12-29T20:33:29;158.50;;;148.02;;
14874;SDS011;7529;48.170;17.138;2022-12-29T20:37:53;131.88;;;123.45;;
14874;SDS011;7529;48.170;17.138;2022-12-29T20:42:12;160.30;;;150.30;;
14874;SDS011;7529;48.170;17.138;2022-12-29T20:46:30;167.30;;;157.77;;
14874;SDS011;7529;48.170;17.138;2022-12-29T20:50:42;147.70;;;138.88;;
14874;SDS011;7529;48.170;17.138;2022-12-29T20:54:53;150.27;;;141.45;;
14874;SDS011;7529;48.170;17.138;2022-12-29T20:59:04;139.77;;;131.70;;
14874;SDS011;7529;48.170;17.138;2022-12-29T21:03:16;121.70;;;114.18;;
14874;SDS011;7529;48.170;17.138;2022-12-29T21:07:27;119.18;;;112.05;;
14874;SDS011;7529;48.170;17.138;2022-12-29T21:11:39;156.55;;;147.60;;
14874;SDS011;7529;48.170;17.138;2022-12-29T21:16:00;137.00;;;128.70;;
14874;SDS011;7529;48.170;17.138;2022-12-29T21:20:15;153.38;;;145.05;;
14874;SDS011;7529;48.170;17.138;2022-12-29T21:24:31;145.68;;;136.95;;
14874;SDS011;7529;48.170;17.138;2022-12-29T21:28:42;123.40;;;115.13;;
14874;SDS011;7529;48.170;17.138;2022-12-29T21:32:55;180.95;;;169.77;;
14874;SDS011;7529;48.170;17.138;2022-12-29T21:37:07;131.45;;;123.70;;
14874;SDS011;7529;48.170;17.138;2022-12-29T21:41:24;150.82;;;142.25;;
14874;SDS011;7529;48.170;17.138;2022-12-29T21:45:36;154.00;;;145.32;;
14874;SDS011;7529;48.170;17.138;2022-12-29T21:49:47;179.18;;;169.30;;
14874;SDS011;7529;48.170;17.138;2022-12-29T21:53:59;166.57;;;156.98;;
14874;SDS011;7529;48.170;17.138;2022-12-29T21:58:30;166.90;;;157.38;;
14874;SDS011;7529;48.170;17.138;2022-12-29T22:03:00;140.70;;;132.40;;
14874;SDS011;7529;48.170;17.138;2022-12-29T22:07:30;155.98;;;146.82;;
14874;SDS011;7529;48.170;17.138;2022-12-29T22:11:59;150.43;;;141.18;;
14874;SDS011;7529;48.170;17.138;2022-12-29T22:16:29;148.70;;;139.95;;
14874;SDS011;7529;48.170;17.138;2022-12-29T22:20:41;157.35;;;148.30;;
14874;SDS011;7529;48.170;17.138;2022-12-29T22:24:52;171.02;;;161.23;;
14874;SDS011;7529;48.170;17.138;2022-12-29T22:29:03;162.65;;;153.73;;
14874;SDS011;7529;48.170;17.138;2022-12-29T22:33:15;161.50;;;152.07;;
14874;SDS011;7529;48.170;17.138;2022-12-29T22:37:26;145.75;;;137.13;;
14874;SDS011;7529;48.170;17.138;2022-12-29T22:41:38;132.18;;;124.00;;
14874;SDS011;7529;48.170;17.138;2022-12-29T22:45:49;115.72;;;107.43;;
14874;SDS011;7529;48.170;17.138;2022-12-29T22:50:00;149.48;;;140.48;;
14874;SDS011;7529;48.170;17.138;2022-12-29T22:54:13;137.65;;;129.15;;
14874;SDS011;7529;48.170;17.138;2022-12-29T22:58:24;123.65;;;116.10;;
14874;SDS011;7529;48.170;17.138;2022-12-29T23:02:35;126.68;;;118.80;;
14874;SDS011;7529;48.170;17.138;2022-12-29T23:06:47;132.57;;;124.10;;
14874;SDS011;7529;48.170;17.138;2022-12-29T23:10:58;151.80;;;141.43;;
14874;SDS011;7529;48.170;17.138;2022-12-29T23:15:10;120.28;;;112.68;;
14874;SDS011;7529;48.170;17.138;2022-12-29T23:19:21;117.55;;;109.70;;
14874;SDS011;7529;48.170;17.138;2022-12-29T23:23:33;132.48;;;124.57;;
14874;SDS011;7529;48.170;17.138;2022-12-29T23:28:03;136.00;;;127.65;;
14874;SDS011;7529;48.170;17.138;2022-12-29T23:32:17;135.15;;;126.45;;
14874;SDS011;7529;48.170;17.138;2022-12-29T23:36:31;157.60;;;148.55;;
14874;SDS011;7529;48.170;17.138;2022-12-29T23:40:42;112.15;;;104.43;;
14874;SDS011;7529;48.170;17.138;2022-12-29T23:44:53;137.07;;;128.93;;
14874;SDS011;7529;48.170;17.138;2022-12-29T23:49:05;149.02;;;140.43;;
14874;SDS011;7529;48.170;17.138;2022-12-29T23:53:18;118.75;;;111.53;;
14874;SDS011;7529;48.170;17.138;2022-12-29T23:57:29;118.03;;;110.30;;
